sensor_id;sensor_type;location;lat;lon;timestamp;P1;durP1;ratioP1;P2;durP2;ratioP2
60370;SDS011;48550;40.588;49.684;2022-11-04T00:01:42;7.75;;;4.63;;
60370;SDS011;48550;40.588;49.684;2022-11-04T00:04:09;8.93;;;4.93;;
60370;SDS011;48550;40.588;49.684;2022-11-04T00:06:37;8.38;;;4.78;;
60370;SDS011;48550;40.588;49.684;2022-11-04T00:09:04;10.30;;;4.82;;
60370;SDS011;48550;40.588;49.684;2022-11-04T00:11:32;9.85;;;4.53;;
60370;SDS011;48550;40.588;49.684;2022-11-04T00:14:16;8.05;;;4.80;;
60370;SDS011;48550;40.588;49.684;2022-11-04T00:16:43;10.70;;;5.93;;
60370;SDS011;48550;40.588;49.684;2022-11-04T00:19:27;11.18;;;7.40;;
60370;SDS011;48550;40.588;49.684;2022-11-04T00:22:13;11.65;;;7.38;;
60370;SDS011;48550;40.588;49.684;2022-11-04T00:24:54;13.32;;;7.03;;
60370;SDS011;48550;40.588;49.684;2022-11-04T00:27:50;10.95;;;6.72;;
60370;SDS011;48550;40.588;49.684;2022-11-04T00:30:34;11.95;;;7.03;;
60370;SDS011;48550;40.588;49.684;2022-11-04T00:33:00;14.98;;;6.25;;
60370;SDS011;48550;40.588;49.684;2022-11-04T00:35:47;13.13;;;7.00;;
60370;SDS011;48550;40.588;49.684;2022-11-04T00:38:14;11.52;;;6.20;;
60370;SDS011;48550;40.588;49.684;2022-11-04T00:40:40;13.27;;;5.35;;
60370;SDS011;48550;40.588;49.684;2022-11-04T00:43:06;10.23;;;5.53;;
60370;SDS011;48550;40.588;49.684;2022-11-04T00:45:32;11.65;;;5.40;;
60370;SDS011;48550;40.588;49.684;2022-11-04T00:47:57;7.88;;;5.00;;
60370;SDS011;48550;40.588;49.684;2022-11-04T00:50:23;8.57;;;4.65;;
60370;SDS011;48550;40.588;49.684;2022-11-04T00:52:49;9.60;;;4.47;;
60370;SDS011;48550;40.588;49.684;2022-11-04T00:55:15;9.63;;;4.82;;
60370;SDS011;48550;40.588;49.684;2022-11-04T00:57:40;10.48;;;4.30;;
60370;SDS011;48550;40.588;49.684;2022-11-04T01:00:06;7.40;;;4.63;;
60370;SDS011;48550;40.588;49.684;2022-11-04T01:02:33;10.13;;;4.75;;
60370;SDS011;48550;40.588;49.684;2022-11-04T01:04:58;9.32;;;5.00;;
60370;SDS011;48550;40.588;49.684;2022-11-04T01:07:24;10.93;;;5.05;;
60370;SDS011;48550;40.588;49.684;2022-11-04T01:09:50;8.68;;;4.80;;
60370;SDS011;48550;40.588;49.684;2022-11-04T01:12:16;11.68;;;4.90;;
60370;SDS011;48550;40.588;49.684;2022-11-04T01:14:41;7.13;;;4.72;;
60370;SDS011;48550;40.588;49.684;2022-11-04T01:17:07;10.38;;;4.95;;
60370;SDS011;48550;40.588;49.684;2022-11-04T01:19:33;7.35;;;4.40;;
60370;SDS011;48550;40.588;49.684;2022-11-04T01:21:59;12.10;;;4.70;;
60370;SDS011;48550;40.588;49.684;2022-11-04T01:24:24;7.80;;;4.60;;
60370;SDS011;48550;40.588;49.684;2022-11-04T01:26:50;9.57;;;4.45;;
60370;SDS011;48550;40.588;49.684;2022-11-04T01:29:16;8.55;;;4.70;;
60370;SDS011;48550;40.588;49.684;2022-11-04T01:31:42;7.63;;;4.40;;
60370;SDS011;48550;40.588;49.684;2022-11-04T01:34:07;12.32;;;4.95;;
60370;SDS011;48550;40.588;49.684;2022-11-04T01:36:33;9.70;;;4.75;;
60370;SDS011;48550;40.588;49.684;2022-11-04T01:38:59;8.65;;;4.82;;
60370;SDS011;48550;40.588;49.684;2022-11-04T01:41:26;7.60;;;4.50;;
60370;SDS011;48550;40.588;49.684;2022-11-04T01:46:23;10.38;;;5.32;;
60370;SDS011;48550;40.588;49.684;2022-11-04T01:51:42;8.20;;;5.53;;
60370;SDS011;48550;40.588;49.684;2022-11-04T01:54:11;9.32;;;6.45;;
60370;SDS011;48550;40.588;49.684;2022-11-04T01:56:38;18.13;;;6.93;;
60370;SDS011;48550;40.588;49.684;2022-11-04T01:59:07;11.63;;;6.25;;
60370;SDS011;48550;40.588;49.684;2022-11-04T02:01:37;11.07;;;6.43;;
60370;SDS011;48550;40.588;49.684;2022-11-04T02:04:03;15.75;;;8.35;;
60370;SDS011;48550;40.588;49.684;2022-11-04T02:06:48;14.65;;;8.27;;
60370;SDS011;48550;40.588;49.684;2022-11-04T02:09:17;15.40;;;8.95;;
60370;SDS011;48550;40.588;49.684;2022-11-04T02:11:44;19.35;;;10.52;;
60370;SDS011;48550;40.588;49.684;2022-11-04T02:14:33;24.92;;;13.77;;
60370;SDS011;48550;40.588;49.684;2022-11-04T02:17:04;26.90;;;17.05;;
60370;SDS011;48550;40.588;49.684;2022-11-04T02:39:47;72.95;;;40.40;;
60370;SDS011;48550;40.588;49.684;2022-11-04T02:42:18;77.03;;;40.25;;
60370;SDS011;48550;40.588;49.684;2022-11-04T02:45:09;80.50;;;40.20;;
60370;SDS011;48550;40.588;49.684;2022-11-04T02:47:56;76.70;;;42.05;;
60370;SDS011;48550;40.588;49.684;2022-11-04T02:50:48;78.70;;;41.28;;
60370;SDS011;48550;40.588;49.684;2022-11-04T02:55:55;89.05;;;45.97;;
60370;SDS011;48550;40.588;49.684;2022-11-04T02:58:29;82.18;;;43.17;;
60370;SDS011;48550;40.588;49.684;2022-11-04T03:01:01;86.13;;;43.30;;
60370;SDS011;48550;40.588;49.684;2022-11-04T03:03:32;82.40;;;44.63;;
60370;SDS011;48550;40.588;49.684;2022-11-04T03:06:01;77.50;;;43.10;;
60370;SDS011;48550;40.588;49.684;2022-11-04T03:08:36;88.03;;;44.10;;
60370;SDS011;48550;40.588;49.684;2022-11-04T03:11:05;86.95;;;43.30;;
60370;SDS011;48550;40.588;49.684;2022-11-04T03:13:38;83.05;;;43.65;;
60370;SDS011;48550;40.588;49.684;2022-11-04T03:16:06;74.93;;;41.47;;
60370;SDS011;48550;40.588;49.684;2022-11-04T03:18:43;71.45;;;35.65;;
60370;SDS011;48550;40.588;49.684;2022-11-04T03:21:30;61.25;;;32.22;;
60370;SDS011;48550;40.588;49.684;2022-11-04T03:23:58;64.75;;;30.90;;
60370;SDS011;48550;40.588;49.684;2022-11-04T03:26:31;50.33;;;27.38;;
60370;SDS011;48550;40.588;49.684;2022-11-04T03:29:06;43.33;;;22.90;;
60370;SDS011;48550;40.588;49.684;2022-11-04T03:31:56;54.38;;;24.90;;
60370;SDS011;48550;40.588;49.684;2022-11-04T03:34:28;50.53;;;23.92;;
60370;SDS011;48550;40.588;49.684;2022-11-04T03:36:55;56.83;;;24.95;;
60370;SDS011;48550;40.588;49.684;2022-11-04T03:39:21;53.28;;;25.70;;
60370;SDS011;48550;40.588;49.684;2022-11-04T03:41:48;50.90;;;25.05;;
60370;SDS011;48550;40.588;49.684;2022-11-04T03:44:17;51.58;;;24.80;;
60370;SDS011;48550;40.588;49.684;2022-11-04T03:46:44;46.70;;;25.90;;
60370;SDS011;48550;40.588;49.684;2022-11-04T03:49:10;49.80;;;26.08;;
60370;SDS011;48550;40.588;49.684;2022-11-04T03:51:37;60.28;;;26.48;;
60370;SDS011;48550;40.588;49.684;2022-11-04T03:54:03;59.08;;;27.15;;
60370;SDS011;48550;40.588;49.684;2022-11-04T03:57:15;49.85;;;26.98;;
60370;SDS011;48550;40.588;49.684;2022-11-04T04:02:45;48.08;;;24.77;;
60370;SDS011;48550;40.588;49.684;2022-11-04T04:08:17;55.22;;;27.80;;
60370;SDS011;48550;40.588;49.684;2022-11-04T04:11:04;60.05;;;26.25;;
60370;SDS011;48550;40.588;49.684;2022-11-04T04:17:07;62.55;;;28.83;;
60370;SDS011;48550;40.588;49.684;2022-11-04T04:19:38;56.33;;;30.98;;
60370;SDS011;48550;40.588;49.684;2022-11-04T04:22:12;60.88;;;32.05;;
60370;SDS011;48550;40.588;49.684;2022-11-04T04:24:43;65.82;;;41.53;;
60370;SDS011;48550;40.588;49.684;2022-11-04T04:27:30;79.45;;;45.50;;
60370;SDS011;48550;40.588;49.684;2022-11-04T04:30:03;78.22;;;45.30;;
60370;SDS011;48550;40.588;49.684;2022-11-04T04:32:44;91.95;;;47.30;;
60370;SDS011;48550;40.588;49.684;2022-11-04T04:35:12;67.43;;;43.97;;
60370;SDS011;48550;40.588;49.684;2022-11-04T04:37:59;66.00;;;38.30;;
60370;SDS011;48550;40.588;49.684;2022-11-04T04:40:50;54.42;;;30.67;;
60370;SDS011;48550;40.588;49.684;2022-11-04T04:43:40;41.65;;;25.30;;
60370;SDS011;48550;40.588;49.684;2022-11-04T04:46:28;44.88;;;24.05;;
60370;SDS011;48550;40.588;49.684;2022-11-04T04:49:03;49.38;;;22.38;;
60370;SDS011;48550;40.588;49.684;2022-11-04T04:51:33;37.50;;;18.85;;
60370;SDS011;48550;40.588;49.684;2022-11-04T04:54:02;35.95;;;16.70;;
60370;SDS011;48550;40.588;49.684;2022-11-04T04:56:28;30.23;;;15.55;;
60370;SDS011;48550;40.588;49.684;2022-11-04T04:58:54;20.15;;;11.63;;
60370;SDS011;48550;40.588;49.684;2022-11-04T05:01:19;21.67;;;12.25;;
60370;SDS011;48550;40.588;49.684;2022-11-04T05:03:45;25.42;;;13.63;;
60370;SDS011;48550;40.588;49.684;2022-11-04T05:06:11;32.40;;;12.93;;
60370;SDS011;48550;40.588;49.684;2022-11-04T05:08:36;39.33;;;19.83;;
60370;SDS011;48550;40.588;49.684;2022-11-04T05:11:02;27.00;;;10.65;;
60370;SDS011;48550;40.588;49.684;2022-11-04T05:13:28;32.20;;;11.80;;
60370;SDS011;48550;40.588;49.684;2022-11-04T05:16:02;31.00;;;10.80;;
60370;SDS011;48550;40.588;49.684;2022-11-04T05:18:32;31.90;;;9.27;;
60370;SDS011;48550;40.588;49.684;2022-11-04T05:21:01;23.75;;;9.82;;
60370;SDS011;48550;40.588;49.684;2022-11-04T05:23:28;26.73;;;9.85;;
60370;SDS011;48550;40.588;49.684;2022-11-04T05:25:56;16.38;;;8.30;;
60370;SDS011;48550;40.588;49.684;2022-11-04T05:28:22;32.97;;;8.40;;
60370;SDS011;48550;40.588;49.684;2022-11-04T05:30:48;24.33;;;9.18;;
60370;SDS011;48550;40.588;49.684;2022-11-04T05:33:14;25.90;;;6.80;;
60370;SDS011;48550;40.588;49.684;2022-11-04T05:35:40;20.35;;;6.80;;
60370;SDS011;48550;40.588;49.684;2022-11-04T05:38:05;19.20;;;7.60;;
60370;SDS011;48550;40.588;49.684;2022-11-04T05:40:31;20.48;;;6.82;;
60370;SDS011;48550;40.588;49.684;2022-11-04T05:42:57;12.07;;;5.35;;
60370;SDS011;48550;40.588;49.684;2022-11-04T05:45:24;19.02;;;7.28;;
60370;SDS011;48550;40.588;49.684;2022-11-04T05:47:57;15.10;;;6.15;;
60370;SDS011;48550;40.588;49.684;2022-11-04T05:50:24;10.80;;;5.15;;
60370;SDS011;48550;40.588;49.684;2022-11-04T05:52:50;16.90;;;5.30;;
60370;SDS011;48550;40.588;49.684;2022-11-04T05:55:15;11.15;;;4.60;;
60370;SDS011;48550;40.588;49.684;2022-11-04T05:57:43;10.85;;;5.45;;
60370;SDS011;48550;40.588;49.684;2022-11-04T06:00:09;19.90;;;9.02;;
60370;SDS011;48550;40.588;49.684;2022-11-04T06:02:35;23.13;;;8.02;;
60370;SDS011;48550;40.588;49.684;2022-11-04T06:05:00;15.38;;;8.02;;
60370;SDS011;48550;40.588;49.684;2022-11-04T06:07:26;16.75;;;9.02;;
60370;SDS011;48550;40.588;49.684;2022-11-04T06:09:52;18.90;;;8.52;;
60370;SDS011;48550;40.588;49.684;2022-11-04T06:12:18;21.60;;;9.27;;
60370;SDS011;48550;40.588;49.684;2022-11-04T06:14:43;23.58;;;9.02;;
60370;SDS011;48550;40.588;49.684;2022-11-04T06:17:13;20.23;;;9.25;;
60370;SDS011;48550;40.588;49.684;2022-11-04T06:19:40;16.00;;;7.43;;
60370;SDS011;48550;40.588;49.684;2022-11-04T06:22:06;19.88;;;6.80;;
60370;SDS011;48550;40.588;49.684;2022-11-04T06:24:33;11.48;;;4.72;;
60370;SDS011;48550;40.588;49.684;2022-11-04T06:26:59;15.35;;;5.10;;
60370;SDS011;48550;40.588;49.684;2022-11-04T06:29:24;13.98;;;5.38;;
60370;SDS011;48550;40.588;49.684;2022-11-04T06:31:50;16.05;;;5.50;;
60370;SDS011;48550;40.588;49.684;2022-11-04T06:34:16;12.27;;;5.53;;
60370;SDS011;48550;40.588;49.684;2022-11-04T06:36:41;16.98;;;5.65;;
60370;SDS011;48550;40.588;49.684;2022-11-04T06:39:07;19.52;;;5.50;;
60370;SDS011;48550;40.588;49.684;2022-11-04T06:41:33;16.45;;;5.53;;
60370;SDS011;48550;40.588;49.684;2022-11-04T06:43:58;11.20;;;4.63;;
60370;SDS011;48550;40.588;49.684;2022-11-04T06:46:25;14.27;;;5.00;;
60370;SDS011;48550;40.588;49.684;2022-11-04T06:49:05;15.70;;;4.80;;
60370;SDS011;48550;40.588;49.684;2022-11-04T06:51:34;12.35;;;4.22;;
60370;SDS011;48550;40.588;49.684;2022-11-04T06:53:59;11.55;;;3.97;;
60370;SDS011;48550;40.588;49.684;2022-11-04T06:56:25;13.25;;;4.25;;
60370;SDS011;48550;40.588;49.684;2022-11-04T06:58:51;23.63;;;5.07;;
60370;SDS011;48550;40.588;49.684;2022-11-04T07:01:18;11.70;;;3.95;;
60370;SDS011;48550;40.588;49.684;2022-11-04T07:03:49;8.68;;;3.30;;
60370;SDS011;48550;40.588;49.684;2022-11-04T07:06:20;9.68;;;3.88;;
60370;SDS011;48550;40.588;49.684;2022-11-04T07:08:46;6.32;;;2.85;;
60370;SDS011;48550;40.588;49.684;2022-11-04T07:11:14;9.05;;;2.80;;
60370;SDS011;48550;40.588;49.684;2022-11-04T07:13:41;10.57;;;3.40;;
60370;SDS011;48550;40.588;49.684;2022-11-04T07:16:07;6.88;;;2.72;;
60370;SDS011;48550;40.588;49.684;2022-11-04T07:18:33;9.38;;;3.20;;
60370;SDS011;48550;40.588;49.684;2022-11-04T07:21:00;7.95;;;3.63;;
60370;SDS011;48550;40.588;49.684;2022-11-04T07:23:26;7.05;;;2.70;;
60370;SDS011;48550;40.588;49.684;2022-11-04T07:25:51;9.40;;;2.80;;
60370;SDS011;48550;40.588;49.684;2022-11-04T07:28:18;11.57;;;3.30;;
60370;SDS011;48550;40.588;49.684;2022-11-04T07:30:45;8.43;;;2.50;;
60370;SDS011;48550;40.588;49.684;2022-11-04T07:33:11;14.82;;;3.95;;
60370;SDS011;48550;40.588;49.684;2022-11-04T07:35:36;9.50;;;3.30;;
60370;SDS011;48550;40.588;49.684;2022-11-04T07:38:03;6.07;;;2.97;;
60370;SDS011;48550;40.588;49.684;2022-11-04T07:40:29;9.75;;;3.45;;
60370;SDS011;48550;40.588;49.684;2022-11-04T07:42:59;14.73;;;3.03;;
60370;SDS011;48550;40.588;49.684;2022-11-04T07:45:25;9.90;;;2.70;;
60370;SDS011;48550;40.588;49.684;2022-11-04T07:47:51;5.57;;;2.60;;
60370;SDS011;48550;40.588;49.684;2022-11-04T07:50:17;7.10;;;3.08;;
60370;SDS011;48550;40.588;49.684;2022-11-04T07:52:43;6.15;;;2.67;;
60370;SDS011;48550;40.588;49.684;2022-11-04T07:55:09;6.20;;;2.72;;
60370;SDS011;48550;40.588;49.684;2022-11-04T07:57:38;12.20;;;3.05;;
60370;SDS011;48550;40.588;49.684;2022-11-04T08:00:04;11.98;;;2.75;;
60370;SDS011;48550;40.588;49.684;2022-11-04T08:02:33;11.00;;;2.67;;
60370;SDS011;48550;40.588;49.684;2022-11-04T08:04:59;8.40;;;2.75;;
60370;SDS011;48550;40.588;49.684;2022-11-04T08:07:24;8.18;;;2.83;;
60370;SDS011;48550;40.588;49.684;2022-11-04T08:09:50;8.73;;;2.72;;
60370;SDS011;48550;40.588;49.684;2022-11-04T08:12:16;6.20;;;2.40;;
60370;SDS011;48550;40.588;49.684;2022-11-04T08:14:41;5.97;;;2.33;;
60370;SDS011;48550;40.588;49.684;2022-11-04T08:17:07;10.60;;;2.55;;
60370;SDS011;48550;40.588;49.684;2022-11-04T08:19:33;8.15;;;2.58;;
60370;SDS011;48550;40.588;49.684;2022-11-04T08:21:58;7.20;;;2.67;;
60370;SDS011;48550;40.588;49.684;2022-11-04T08:24:24;5.57;;;1.92;;
60370;SDS011;48550;40.588;49.684;2022-11-04T08:26:50;6.22;;;2.10;;
60370;SDS011;48550;40.588;49.684;2022-11-04T08:29:15;6.35;;;2.17;;
60370;SDS011;48550;40.588;49.684;2022-11-04T08:31:41;7.13;;;2.35;;
60370;SDS011;48550;40.588;49.684;2022-11-04T08:34:07;6.60;;;2.40;;
60370;SDS011;48550;40.588;49.684;2022-11-04T08:36:35;9.45;;;2.38;;
60370;SDS011;48550;40.588;49.684;2022-11-04T08:39:03;5.80;;;2.10;;
60370;SDS011;48550;40.588;49.684;2022-11-04T08:41:30;14.27;;;5.70;;
60370;SDS011;48550;40.588;49.684;2022-11-04T08:43:57;6.88;;;2.42;;
60370;SDS011;48550;40.588;49.684;2022-11-04T08:46:28;5.88;;;2.22;;
60370;SDS011;48550;40.588;49.684;2022-11-04T08:48:57;6.10;;;2.30;;
60370;SDS011;48550;40.588;49.684;2022-11-04T08:51:24;6.38;;;2.38;;
60370;SDS011;48550;40.588;49.684;2022-11-04T08:53:51;9.05;;;2.25;;
60370;SDS011;48550;40.588;49.684;2022-11-04T08:56:22;8.35;;;2.50;;
60370;SDS011;48550;40.588;49.684;2022-11-04T12:31:31;13.38;;;2.95;;
60370;SDS011;48550;40.588;49.684;2022-11-04T12:35:00;6.50;;;2.63;;
60370;SDS011;48550;40.588;49.684;2022-11-04T12:51:48;5.10;;;2.38;;
60370;SDS011;48550;40.588;49.684;2022-11-04T12:54:41;9.27;;;2.70;;
60370;SDS011;48550;40.588;49.684;2022-11-04T12:57:21;27.20;;;3.70;;
60370;SDS011;48550;40.588;49.684;2022-11-04T13:02:23;7.55;;;2.55;;
60370;SDS011;48550;40.588;49.684;2022-11-04T13:10:50;12.13;;;3.53;;
60370;SDS011;48550;40.588;49.684;2022-11-04T13:13:22;10.13;;;2.88;;
60370;SDS011;48550;40.588;49.684;2022-11-04T13:15:55;16.02;;;3.53;;
60370;SDS011;48550;40.588;49.684;2022-11-04T13:18:24;9.40;;;2.90;;
60370;SDS011;48550;40.588;49.684;2022-11-04T13:20:58;10.63;;;2.72;;
60370;SDS011;48550;40.588;49.684;2022-11-04T13:23:49;14.50;;;3.10;;
60370;SDS011;48550;40.588;49.684;2022-11-04T13:26:21;11.25;;;2.85;;
60370;SDS011;48550;40.588;49.684;2022-11-04T13:28:49;12.20;;;2.60;;
60370;SDS011;48550;40.588;49.684;2022-11-04T13:31:43;14.60;;;4.43;;
60370;SDS011;48550;40.588;49.684;2022-11-04T13:34:25;9.82;;;2.97;;
60370;SDS011;48550;40.588;49.684;2022-11-04T13:39:51;10.68;;;3.03;;
60370;SDS011;48550;40.588;49.684;2022-11-04T13:42:29;14.25;;;3.15;;
60370;SDS011;48550;40.588;49.684;2022-11-04T13:45:09;9.52;;;2.78;;
60370;SDS011;48550;40.588;49.684;2022-11-04T13:47:56;5.38;;;2.55;;
60370;SDS011;48550;40.588;49.684;2022-11-04T13:53:05;7.57;;;2.70;;
60370;SDS011;48550;40.588;49.684;2022-11-04T13:55:35;10.95;;;2.85;;
60370;SDS011;48550;40.588;49.684;2022-11-04T13:58:14;8.82;;;2.55;;
60370;SDS011;48550;40.588;49.684;2022-11-04T14:14:41;8.02;;;2.80;;
60370;SDS011;48550;40.588;49.684;2022-11-04T14:19:59;14.50;;;4.03;;
60370;SDS011;48550;40.588;49.684;2022-11-04T14:22:35;12.80;;;3.83;;
60370;SDS011;48550;40.588;49.684;2022-11-04T14:30:40;13.45;;;3.22;;
60370;SDS011;48550;40.588;49.684;2022-11-04T14:35:49;8.43;;;3.83;;
60370;SDS011;48550;40.588;49.684;2022-11-04T14:38:21;11.27;;;3.95;;
60370;SDS011;48550;40.588;49.684;2022-11-04T14:41:19;11.18;;;4.10;;
60370;SDS011;48550;40.588;49.684;2022-11-04T14:43:47;10.88;;;4.88;;
60370;SDS011;48550;40.588;49.684;2022-11-04T14:46:20;9.95;;;3.85;;
60370;SDS011;48550;40.588;49.684;2022-11-04T14:48:50;15.07;;;3.88;;
60370;SDS011;48550;40.588;49.684;2022-11-04T14:51:27;9.70;;;3.30;;
60370;SDS011;48550;40.588;49.684;2022-11-04T14:53:58;11.93;;;3.50;;
60370;SDS011;48550;40.588;49.684;2022-11-04T14:56:28;17.67;;;5.38;;
60370;SDS011;48550;40.588;49.684;2022-11-04T14:58:55;11.10;;;4.18;;
60370;SDS011;48550;40.588;49.684;2022-11-04T15:01:28;17.60;;;4.93;;
60370;SDS011;48550;40.588;49.684;2022-11-04T15:03:58;18.23;;;5.85;;
60370;SDS011;48550;40.588;49.684;2022-11-04T15:06:37;10.27;;;4.15;;
60370;SDS011;48550;40.588;49.684;2022-11-04T15:09:16;8.48;;;3.17;;
60370;SDS011;48550;40.588;49.684;2022-11-04T15:11:44;10.90;;;3.63;;
60370;SDS011;48550;40.588;49.684;2022-11-04T15:14:29;18.02;;;9.15;;
60370;SDS011;48550;40.588;49.684;2022-11-04T15:16:55;15.38;;;4.90;;
60370;SDS011;48550;40.588;49.684;2022-11-04T15:19:27;13.55;;;6.00;;
60370;SDS011;48550;40.588;49.684;2022-11-04T15:21:57;11.48;;;4.22;;
60370;SDS011;48550;40.588;49.684;2022-11-04T15:24:25;7.22;;;3.20;;
60370;SDS011;48550;40.588;49.684;2022-11-04T15:26:53;10.82;;;2.92;;
60370;SDS011;48550;40.588;49.684;2022-11-04T15:29:21;9.63;;;3.85;;
60370;SDS011;48550;40.588;49.684;2022-11-04T15:31:58;12.38;;;3.40;;
60370;SDS011;48550;40.588;49.684;2022-11-04T15:34:26;8.75;;;3.30;;
60370;SDS011;48550;40.588;49.684;2022-11-04T15:36:55;9.45;;;3.15;;
60370;SDS011;48550;40.588;49.684;2022-11-04T15:39:50;6.53;;;2.92;;
60370;SDS011;48550;40.588;49.684;2022-11-04T15:42:20;9.27;;;2.90;;
60370;SDS011;48550;40.588;49.684;2022-11-04T15:50:52;9.32;;;3.35;;
60370;SDS011;48550;40.588;49.684;2022-11-04T15:53:45;11.57;;;3.60;;
60370;SDS011;48550;40.588;49.684;2022-11-04T15:56:17;9.52;;;3.47;;
60370;SDS011;48550;40.588;49.684;2022-11-04T15:58:45;13.55;;;4.00;;
60370;SDS011;48550;40.588;49.684;2022-11-04T16:01:14;8.88;;;4.18;;
60370;SDS011;48550;40.588;49.684;2022-11-04T16:03:48;12.43;;;4.75;;
60370;SDS011;48550;40.588;49.684;2022-11-04T16:06:16;16.95;;;5.63;;
60370;SDS011;48550;40.588;49.684;2022-11-04T16:08:42;11.05;;;5.05;;
60370;SDS011;48550;40.588;49.684;2022-11-04T16:13:33;11.18;;;4.00;;
60370;SDS011;48550;40.588;49.684;2022-11-04T16:20:54;8.82;;;3.67;;
60370;SDS011;48550;40.588;49.684;2022-11-04T16:23:24;15.27;;;3.55;;
60370;SDS011;48550;40.588;49.684;2022-11-04T16:25:56;14.70;;;5.65;;
60370;SDS011;48550;40.588;49.684;2022-11-04T16:28:26;11.02;;;5.07;;
60370;SDS011;48550;40.588;49.684;2022-11-04T16:30:58;12.45;;;7.88;;
60370;SDS011;48550;40.588;49.684;2022-11-04T16:33:26;13.73;;;5.77;;
60370;SDS011;48550;40.588;49.684;2022-11-04T16:35:51;12.85;;;7.53;;
60370;SDS011;48550;40.588;49.684;2022-11-04T16:38:17;11.35;;;7.93;;
60370;SDS011;48550;40.588;49.684;2022-11-04T16:40:44;16.65;;;8.48;;
60370;SDS011;48550;40.588;49.684;2022-11-04T16:43:12;20.33;;;8.40;;
60370;SDS011;48550;40.588;49.684;2022-11-04T16:45:46;15.82;;;7.00;;
60370;SDS011;48550;40.588;49.684;2022-11-04T16:48:14;10.98;;;7.32;;
60370;SDS011;48550;40.588;49.684;2022-11-04T16:50:41;21.33;;;7.28;;
60370;SDS011;48550;40.588;49.684;2022-11-04T16:53:07;15.20;;;7.45;;
60370;SDS011;48550;40.588;49.684;2022-11-04T16:55:33;15.55;;;7.13;;
60370;SDS011;48550;40.588;49.684;2022-11-04T16:58:00;10.60;;;6.72;;
60370;SDS011;48550;40.588;49.684;2022-11-04T17:00:29;12.55;;;6.30;;
60370;SDS011;48550;40.588;49.684;2022-11-04T17:03:07;10.75;;;5.93;;
60370;SDS011;48550;40.588;49.684;2022-11-04T17:05:53;15.30;;;10.68;;
60370;SDS011;48550;40.588;49.684;2022-11-04T17:08:21;14.00;;;5.88;;
60370;SDS011;48550;40.588;49.684;2022-11-04T17:10:47;11.68;;;6.30;;
60370;SDS011;48550;40.588;49.684;2022-11-04T17:13:14;13.82;;;6.65;;
60370;SDS011;48550;40.588;49.684;2022-11-04T17:15:40;14.13;;;5.82;;
60370;SDS011;48550;40.588;49.684;2022-11-04T17:18:08;11.40;;;6.22;;
60370;SDS011;48550;40.588;49.684;2022-11-04T17:20:38;14.70;;;6.30;;
60370;SDS011;48550;40.588;49.684;2022-11-04T17:23:05;14.70;;;7.05;;
60370;SDS011;48550;40.588;49.684;2022-11-04T17:25:31;11.02;;;6.32;;
60370;SDS011;48550;40.588;49.684;2022-11-04T17:27:57;18.30;;;7.75;;
60370;SDS011;48550;40.588;49.684;2022-11-04T17:30:22;14.57;;;6.07;;
60370;SDS011;48550;40.588;49.684;2022-11-04T17:32:49;17.02;;;7.07;;
60370;SDS011;48550;40.588;49.684;2022-11-04T17:35:15;12.43;;;6.18;;
60370;SDS011;48550;40.588;49.684;2022-11-04T17:37:42;7.22;;;4.82;;
60370;SDS011;48550;40.588;49.684;2022-11-04T17:40:10;11.35;;;5.55;;
60370;SDS011;48550;40.588;49.684;2022-11-04T17:42:38;10.73;;;5.40;;
60370;SDS011;48550;40.588;49.684;2022-11-04T17:45:22;10.48;;;4.75;;
60370;SDS011;48550;40.588;49.684;2022-11-04T17:47:48;11.00;;;4.70;;
60370;SDS011;48550;40.588;49.684;2022-11-04T17:50:13;9.80;;;4.93;;
60370;SDS011;48550;40.588;49.684;2022-11-04T17:52:39;11.52;;;4.97;;
60370;SDS011;48550;40.588;49.684;2022-11-04T17:55:06;7.70;;;4.72;;
60370;SDS011;48550;40.588;49.684;2022-11-04T17:57:33;9.73;;;5.63;;
60370;SDS011;48550;40.588;49.684;2022-11-04T17:59:59;8.30;;;5.03;;
60370;SDS011;48550;40.588;49.684;2022-11-04T18:02:27;9.38;;;5.25;;
60370;SDS011;48550;40.588;49.684;2022-11-04T18:04:53;8.90;;;5.10;;
60370;SDS011;48550;40.588;49.684;2022-11-04T18:07:18;21.60;;;9.55;;
60370;SDS011;48550;40.588;49.684;2022-11-04T18:09:44;11.98;;;5.80;;
60370;SDS011;48550;40.588;49.684;2022-11-04T18:12:10;11.23;;;4.93;;
60370;SDS011;48550;40.588;49.684;2022-11-04T18:14:55;8.32;;;4.15;;
60370;SDS011;48550;40.588;49.684;2022-11-04T18:17:20;8.90;;;5.32;;
60370;SDS011;48550;40.588;49.684;2022-11-04T18:19:51;9.25;;;5.20;;
60370;SDS011;48550;40.588;49.684;2022-11-04T18:22:17;7.40;;;4.80;;
60370;SDS011;48550;40.588;49.684;2022-11-04T18:24:43;11.10;;;5.10;;
60370;SDS011;48550;40.588;49.684;2022-11-04T18:27:09;13.20;;;5.68;;
60370;SDS011;48550;40.588;49.684;2022-11-04T18:29:35;9.95;;;5.18;;
60370;SDS011;48550;40.588;49.684;2022-11-04T18:32:01;9.77;;;4.10;;
60370;SDS011;48550;40.588;49.684;2022-11-04T18:34:27;10.50;;;4.82;;
60370;SDS011;48550;40.588;49.684;2022-11-04T18:36:52;8.85;;;4.30;;
60370;SDS011;48550;40.588;49.684;2022-11-04T18:39:20;9.15;;;4.18;;
60370;SDS011;48550;40.588;49.684;2022-11-04T18:41:46;7.78;;;4.90;;
60370;SDS011;48550;40.588;49.684;2022-11-04T18:44:13;11.52;;;4.30;;
60370;SDS011;48550;40.588;49.684;2022-11-04T18:46:44;8.65;;;4.85;;
60370;SDS011;48550;40.588;49.684;2022-11-04T18:49:10;6.63;;;4.40;;
60370;SDS011;48550;40.588;49.684;2022-11-04T18:51:37;7.57;;;4.13;;
60370;SDS011;48550;40.588;49.684;2022-11-04T18:54:04;8.68;;;4.22;;
60370;SDS011;48550;40.588;49.684;2022-11-04T18:56:31;9.10;;;4.03;;
60370;SDS011;48550;40.588;49.684;2022-11-04T18:58:57;10.68;;;4.65;;
60370;SDS011;48550;40.588;49.684;2022-11-04T19:01:27;10.77;;;5.10;;
60370;SDS011;48550;40.588;49.684;2022-11-04T19:03:56;9.48;;;4.00;;
60370;SDS011;48550;40.588;49.684;2022-11-04T19:06:23;8.15;;;4.00;;
60370;SDS011;48550;40.588;49.684;2022-11-04T19:08:57;6.65;;;4.28;;
60370;SDS011;48550;40.588;49.684;2022-11-04T19:11:29;7.88;;;4.30;;
60370;SDS011;48550;40.588;49.684;2022-11-04T19:13:58;7.63;;;3.63;;
60370;SDS011;48550;40.588;49.684;2022-11-04T19:16:26;5.50;;;3.42;;
60370;SDS011;48550;40.588;49.684;2022-11-04T19:18:52;7.00;;;3.38;;
60370;SDS011;48550;40.588;49.684;2022-11-04T19:21:20;7.63;;;2.97;;
60370;SDS011;48550;40.588;49.684;2022-11-04T19:23:47;6.05;;;3.13;;
60370;SDS011;48550;40.588;49.684;2022-11-04T19:26:15;6.22;;;2.67;;
60370;SDS011;48550;40.588;49.684;2022-11-04T19:28:43;9.05;;;3.38;;
60370;SDS011;48550;40.588;49.684;2022-11-04T19:31:10;6.20;;;2.78;;
60370;SDS011;48550;40.588;49.684;2022-11-04T19:33:38;4.95;;;2.50;;
60370;SDS011;48550;40.588;49.684;2022-11-04T19:36:05;7.70;;;2.30;;
60370;SDS011;48550;40.588;49.684;2022-11-04T19:38:32;9.00;;;2.45;;
60370;SDS011;48550;40.588;49.684;2022-11-04T19:41:02;4.78;;;2.63;;
60370;SDS011;48550;40.588;49.684;2022-11-04T19:43:30;6.90;;;2.40;;
60370;SDS011;48550;40.588;49.684;2022-11-04T19:46:00;4.00;;;2.35;;
60370;SDS011;48550;40.588;49.684;2022-11-04T19:48:27;5.22;;;2.40;;
60370;SDS011;48550;40.588;49.684;2022-11-04T19:50:54;6.90;;;2.67;;
60370;SDS011;48550;40.588;49.684;2022-11-04T19:53:19;11.25;;;2.50;;
60370;SDS011;48550;40.588;49.684;2022-11-04T19:55:46;2.45;;;1.77;;
60370;SDS011;48550;40.588;49.684;2022-11-04T19:58:19;6.13;;;2.08;;